Airfield :
LOGIN :

Register | Disclaimer

   EN    FR    IT 

 










Legend :    VFR   Marginal VFR   IFR   Intensive IFR   Very Intensive IFR
Visi :
Ceiling :
>= 8 km
>= 3000ft
5 to 8 km
1000 to 3000 ft
1500m to 5 km
500 to 1000 ft
800 to 1500m
200 to 500 ft
< 800m
< 200 ft
Symbols :   Thunderstorms  Fog  Heavy snow  Heavy precipitations  Wind > 20 kt
SIGMETs :     Misc.  Thunderstorms  Icing  Turbulence  Mountain Waves  Volcanic Ashes






- Airport Elevation : 1247 ft
- IATA code : PRG


LKPR - Praha Ruzyne

CURRENT METAR :
  • 180600Z 26008KT CAVOK 20/14 Q1017 NOSIG

EXPIRED METARs :
  • 180530Z 23008KT CAVOK 19/14 Q1017 NOSIG
  • 180500Z 23008KT CAVOK 18/14 Q1017 NOSIG
  • 180430Z 22006KT CAVOK 17/14 Q1017 NOSIG
  • 180400Z 22007KT CAVOK 15/13 Q1017 NOSIG
  • 180330Z 21006KT 160V220 CAVOK 13/12 Q1017 NOSIG
  • 180300Z 22005KT 160V250 CAVOK 14/12 Q1017 NOSIG
  • 180230Z 23005KT CAVOK 14/12 Q1017 NOSIG
  • 180200Z 21005KT CAVOK 14/13 Q1016 NOSIG
  • 180130Z 22007KT CAVOK 15/14 Q1017 NOSIG

TAF TAF LKPR
Valid from the 18 at 06:00 until the 19 at 12:00 UTC


180500Z 1806/1912 21008KT CAVOK
BECMG 1808/1810 15008KT
PROB30
TEMPO 1812/1817 6000 TSRA SCT045CB
PROB30
TEMPO 1905/1909 6000 SHRA SCT045CB



MET'MAP, your aeronautical weather chart ! - Copyright ORBIFLY December 2007 - Disclaimer

ORBIFLY MET'MAP TEAM :

Programming & Development : Alexandra Zaïnal
Original concept : Baudouin d'Aumeries
Technical & hardware support : Manuel Goepfert
Assistance : Marc-Olivier Méhu




SOURCES & CREDITS :

   NOAA